Time;durP1;ratioP1;P1;durP2;ratioP2;P2;SDS_P1;SDS_P2;PMS_P1;PMS_P2;Temp;Humidity;BMP_temperature;BMP_pressure;BME280_temperature;BME280_humidity;BME280_pressure;Samples;Min_cycle;Max_cycle;Signal;HPM_P1;HPM_P2
2023/04/20 00:00:50;;;;;;;6.20;1.92;;;6.40;99.90;;;;;;5045291;28;20041;-79
2023/04/20 00:03:19;;;;;;;2.67;1.85;;;6.50;99.90;;;;;;5045904;28;20037;-79
2023/04/20 00:05:48;;;;;;;6.85;2.30;;;6.50;99.90;;;;;;5047746;28;20127;-79
2023/04/20 00:08:14;;;;;;;4.60;2.38;;;6.60;99.90;;;;;;5044774;28;20567;-78
2023/04/20 00:10:39;;;;;;;3.63;2.20;;;6.60;99.90;;;;;;5060422;28;20052;-79
2023/04/20 00:13:05;;;;;;;4.05;1.92;;;6.70;99.90;;;;;;5043561;28;20053;-79
2023/04/20 00:15:31;;;;;;;3.53;2.58;;;6.80;99.90;;;;;;5061687;28;20044;-79
2023/04/20 00:17:57;;;;;;;6.15;2.33;;;6.80;99.90;;;;;;5046060;28;20040;-79
2023/04/20 00:20:23;;;;;;;5.25;1.98;;;6.80;99.90;;;;;;5042133;28;20465;-79
2023/04/20 00:22:48;;;;;;;6.85;2.28;;;6.80;99.90;;;;;;5045078;28;20483;-79
2023/04/20 00:25:14;;;;;;;4.63;1.88;;;6.90;99.90;;;;;;5045020;28;20690;-79
2023/04/20 00:27:40;;;;;;;5.15;1.60;;;6.90;99.90;;;;;;5043085;28;20041;-78
2023/04/20 00:30:06;;;;;;;4.15;1.55;;;7.00;99.90;;;;;;5045328;28;20463;-79
2023/04/20 00:32:31;;;;;;;3.83;1.45;;;7.00;99.90;;;;;;5041957;28;20786;-79
2023/04/20 00:34:57;;;;;;;3.53;1.25;;;7.10;99.90;;;;;;5041811;28;20075;-79
2023/04/20 00:37:24;;;;;;;5.35;1.75;;;7.20;99.90;;;;;;5043593;28;20041;-79
2023/04/20 00:39:50;;;;;;;5.00;1.60;;;7.30;99.90;;;;;;5046469;28;20105;-79
2023/04/20 00:42:16;;;;;;;8.88;1.50;;;7.30;99.90;;;;;;5050275;28;20037;-79
2023/04/20 00:44:41;;;;;;;5.97;1.40;;;7.30;99.90;;;;;;5045394;28;20040;-79
2023/04/20 00:47:07;;;;;;;4.20;1.30;;;7.30;99.90;;;;;;5045912;28;20033;-79
2023/04/20 00:49:32;;;;;;;2.63;1.30;;;7.40;99.90;;;;;;5043864;28;20736;-79
2023/04/20 00:51:59;;;;;;;2.30;1.08;;;7.40;99.90;;;;;;5076417;28;20071;-78
2023/04/20 00:54:29;;;;;;;2.38;0.80;;;7.50;99.90;;;;;;5043304;28;20127;-79
2023/04/20 00:56:56;;;;;;;7.13;0.80;;;7.60;99.90;;;;;;5025941;28;20099;-79
2023/04/20 00:59:22;;;;;;;6.40;1.75;;;7.80;99.90;;;;;;5060526;28;20167;-79
2023/04/20 01:01:48;;;;;;;4.00;1.63;;;7.80;99.90;;;;;;5039358;28;20048;-79
2023/04/20 01:04:15;;;;;;;2.90;1.02;;;7.90;99.90;;;;;;5057551;28;20049;-79
2023/04/20 01:06:41;;;;;;;2.95;1.17;;;7.90;99.90;;;;;;5042034;28;20037;-79
2023/04/20 01:09:06;;;;;;;5.72;1.83;;;8.00;99.90;;;;;;5043333;28;20029;-78
2023/04/20 01:11:32;;;;;;;3.40;1.02;;;8.10;99.90;;;;;;5040997;28;20479;-79
2023/04/20 01:13:57;;;;;;;4.00;1.02;;;8.10;99.90;;;;;;5042267;28;20099;-79
2023/04/20 01:16:23;;;;;;;3.22;1.15;;;8.10;99.90;;;;;;5041415;28;20144;-78
2023/04/20 01:18:49;;;;;;;3.30;1.55;;;8.20;99.90;;;;;;5043916;28;20047;-78
2023/04/20 01:21:18;;;;;;;4.78;1.65;;;8.20;99.90;;;;;;5039139;28;20160;-79
2023/04/20 01:23:44;;;;;;;6.50;1.00;;;8.20;99.90;;;;;;5040917;28;20067;-79
2023/04/20 01:26:12;;;;;;;4.65;1.80;;;8.20;99.90;;;;;;5042798;28;20084;-79
2023/04/20 01:28:38;;;;;;;3.33;0.95;;;8.20;99.90;;;;;;5042357;28;20052;-78
2023/04/20 01:31:05;;;;;;;3.45;1.65;;;8.20;99.90;;;;;;5044694;28;20032;-79
2023/04/20 01:33:35;;;;;;;5.32;1.00;;;8.30;99.90;;;;;;5044002;28;20041;-79
2023/04/20 01:36:01;;;;;;;5.75;0.85;;;8.30;99.90;;;;;;5040180;28;20044;-79
2023/04/20 01:38:26;;;;;;;3.17;1.17;;;8.40;99.90;;;;;;5042917;28;20052;-79
2023/04/20 01:40:53;;;;;;;5.97;1.02;;;8.40;99.90;;;;;;5059406;28;20483;-79
2023/04/20 01:43:19;;;;;;;3.30;0.90;;;8.40;99.90;;;;;;5058900;28;20128;-79
2023/04/20 01:45:45;;;;;;;8.98;1.45;;;8.40;99.90;;;;;;5040961;28;20148;-78
2023/04/20 01:48:11;;;;;;;3.88;1.00;;;8.40;99.90;;;;;;5040646;28;20586;-79
2023/04/20 01:50:36;;;;;;;3.10;0.77;;;8.50;99.90;;;;;;5040854;28;20037;-79
2023/04/20 01:53:02;;;;;;;3.63;1.20;;;8.50;99.90;;;;;;5041190;28;20041;-79
2023/04/20 01:55:27;;;;;;;3.85;1.10;;;8.50;99.90;;;;;;5042602;28;20128;-79
2023/04/20 01:57:53;;;;;;;3.47;1.02;;;8.50;99.90;;;;;;5046266;28;20041;-79
2023/04/20 02:00:18;;;;;;;5.40;1.08;;;8.50;99.90;;;;;;5041717;28;20425;-79
2023/04/20 02:02:44;;;;;;;3.78;0.98;;;8.50;99.90;;;;;;5041305;28;20041;-79
2023/04/20 02:05:10;;;;;;;5.38;1.23;;;8.60;99.90;;;;;;5044053;28;20049;-78
2023/04/20 02:07:35;;;;;;;2.53;0.73;;;8.50;99.90;;;;;;5042261;28;20491;-79
2023/04/20 02:10:02;;;;;;;3.25;1.00;;;8.50;99.90;;;;;;5046901;28;20399;-79
2023/04/20 02:12:28;;;;;;;5.07;1.02;;;8.50;99.90;;;;;;5046053;28;20049;-79
2023/04/20 02:14:53;;;;;;;2.30;0.85;;;8.50;99.90;;;;;;5077896;28;20083;-79
2023/04/20 02:17:19;;;;;;;3.42;1.33;;;8.40;99.90;;;;;;5045566;28;20123;-79
2023/04/20 02:19:45;;;;;;;2.95;0.98;;;8.30;99.90;;;;;;5048946;28;20065;-79
2023/04/20 02:22:11;;;;;;;2.17;1.10;;;8.20;99.90;;;;;;5048460;28;20045;-79
2023/04/20 02:24:36;;;;;;;2.08;0.95;;;8.10;99.90;;;;;;5061553;28;20452;-79
2023/04/20 02:27:02;;;;;;;4.95;1.30;;;8.10;99.90;;;;;;5046637;28;20065;-79
2023/04/20 02:29:28;;;;;;;3.13;1.30;;;8.10;99.90;;;;;;5046024;28;20073;-79
2023/04/20 02:31:53;;;;;;;2.42;0.60;;;8.10;99.90;;;;;;5064903;28;20048;-79
2023/04/20 02:34:19;;;;;;;2.58;0.80;;;8.10;99.90;;;;;;5045926;28;20036;-79
2023/04/20 02:36:45;;;;;;;3.85;1.40;;;8.10;99.90;;;;;;5050020;28;20047;-79
2023/04/20 02:39:10;;;;;;;2.72;1.05;;;8.10;99.90;;;;;;5052301;28;20037;-79
2023/04/20 02:41:36;;;;;;;4.43;1.42;;;8.10;99.90;;;;;;5049176;28;20045;-79
2023/04/20 02:44:01;;;;;;;4.68;1.20;;;8.10;99.90;;;;;;5047935;28;20061;-79
2023/04/20 02:46:27;;;;;;;2.28;0.90;;;8.10;99.90;;;;;;5049613;28;20037;-79
2023/04/20 02:48:54;;;;;;;9.23;1.63;;;8.10;99.90;;;;;;5047387;28;20055;-79
2023/04/20 02:51:19;;;;;;;5.85;1.15;;;8.10;99.90;;;;;;5048691;28;20077;-79
2023/04/20 02:53:45;;;;;;;6.18;1.17;;;8.10;99.90;;;;;;5063356;28;20076;-79
2023/04/20 02:56:10;;;;;;;4.15;1.13;;;8.10;99.90;;;;;;5049240;28;20037;-79
2023/04/20 02:58:36;;;;;;;5.80;1.58;;;8.00;99.90;;;;;;5048232;28;20079;-79
2023/04/20 03:01:03;;;;;;;4.13;1.42;;;8.10;99.90;;;;;;5046401;28;20064;-79
2023/04/20 03:03:29;;;;;;;6.97;2.63;;;8.10;99.90;;;;;;5046027;28;20046;-79
2023/04/20 03:05:55;;;;;;;4.75;1.10;;;8.10;99.90;;;;;;5030027;28;20548;-79
2023/04/20 03:08:21;;;;;;;2.10;0.80;;;8.10;99.90;;;;;;5044571;28;20086;-79
2023/04/20 03:10:46;;;;;;;2.97;1.13;;;8.10;99.90;;;;;;5079732;28;20037;-79
2023/04/20 03:13:12;;;;;;;5.97;1.35;;;8.10;99.90;;;;;;5046131;28;20099;-78
2023/04/20 03:15:37;;;;;;;6.13;0.98;;;8.10;99.90;;;;;;5044891;28;20120;-79
2023/04/20 03:18:03;;;;;;;4.55;1.17;;;8.10;99.90;;;;;;5076454;28;20045;-79
2023/04/20 03:20:29;;;;;;;2.35;0.93;;;8.20;99.90;;;;;;5043038;28;20075;-79
2023/04/20 03:22:55;;;;;;;7.88;2.20;;;8.30;99.90;;;;;;5073455;28;20048;-79
2023/04/20 03:25:21;;;;;;;5.68;1.20;;;8.30;99.90;;;;;;5043627;28;21563;-78
2023/04/20 03:27:47;;;;;;;6.68;1.30;;;8.30;99.90;;;;;;5040930;28;20527;-79
2023/04/20 03:30:12;;;;;;;5.03;1.52;;;8.30;99.90;;;;;;5077469;28;20510;-79
2023/04/20 03:32:38;;;;;;;3.05;0.90;;;8.30;99.90;;;;;;5044751;28;20045;-78
2023/04/20 03:35:05;;;;;;;5.03;1.27;;;8.40;99.90;;;;;;5058339;28;20045;-78
2023/04/20 03:37:31;;;;;;;3.75;1.33;;;8.40;99.90;;;;;;5040820;28;20698;-79
2023/04/20 03:39:56;;;;;;;2.58;1.08;;;8.40;99.90;;;;;;5044719;28;20041;-78
2023/04/20 03:42:22;;;;;;;4.15;1.15;;;8.50;99.90;;;;;;5045536;28;20037;-78
2023/04/20 03:44:47;;;;;;;2.58;0.80;;;8.40;99.90;;;;;;5042258;28;20518;-78
2023/04/20 03:47:13;;;;;;;1.77;0.95;;;8.40;99.90;;;;;;5042083;28;20045;-79
2023/04/20 03:49:39;;;;;;;2.85;0.80;;;8.40;99.90;;;;;;5043919;28;20080;-79
2023/04/20 03:52:04;;;;;;;2.38;1.17;;;8.30;99.90;;;;;;5042766;28;20079;-79
2023/04/20 03:54:30;;;;;;;2.90;1.00;;;8.30;99.90;;;;;;5043993;28;20084;-79
2023/04/20 03:56:55;;;;;;;3.13;1.38;;;8.30;99.90;;;;;;5044215;28;20546;-79
2023/04/20 03:59:21;;;;;;;5.25;1.27;;;8.40;99.90;;;;;;5044068;28;20475;-79
2023/04/20 04:01:47;;;;;;;4.45;1.00;;;8.30;99.90;;;;;;5040882;28;20048;-79
2023/04/20 04:04:12;;;;;;;3.60;1.15;;;8.20;99.90;;;;;;5041839;28;20251;-80
2023/04/20 04:06:38;;;;;;;5.47;0.82;;;8.30;99.90;;;;;;5059070;28;20042;-79
2023/04/20 04:09:03;;;;;;;2.55;1.05;;;8.30;99.90;;;;;;5040922;28;20041;-79
2023/04/20 04:11:29;;;;;;;5.25;1.02;;;8.30;99.90;;;;;;5041646;28;20487;-79
2023/04/20 04:13:56;;;;;;;3.05;1.10;;;8.30;99.90;;;;;;5042742;28;20040;-79
2023/04/20 04:16:22;;;;;;;6.60;1.10;;;8.30;99.90;;;;;;5071806;28;20047;-79
2023/04/20 04:18:47;;;;;;;2.75;1.50;;;8.30;99.90;;;;;;5044537;28;20406;-78
2023/04/20 04:21:13;;;;;;;5.28;1.05;;;8.20;99.90;;;;;;5040850;28;20915;-79
2023/04/20 04:23:41;;;;;;;2.30;1.00;;;8.10;99.90;;;;;;5039861;28;20040;-80
2023/04/20 04:26:06;;;;;;;4.43;1.48;;;8.00;99.90;;;;;;5044469;28;20075;-80
2023/04/20 04:28:32;;;;;;;5.03;1.52;;;8.00;99.90;;;;;;5048289;28;20060;-81
2023/04/20 04:31:00;;;;;;;3.60;1.00;;;7.90;99.90;;;;;;5049285;28;20047;-79
2023/04/20 04:33:26;;;;;;;3.70;1.08;;;7.90;99.90;;;;;;5044446;28;20037;-79
2023/04/20 04:35:52;;;;;;;4.53;1.02;;;7.90;99.90;;;;;;5044322;28;20107;-79
2023/04/20 04:38:18;;;;;;;3.65;1.45;;;7.80;99.90;;;;;;5050272;28;20041;-80
2023/04/20 04:40:44;;;;;;;6.57;1.30;;;7.70;99.90;;;;;;5030199;28;20623;-79
2023/04/20 04:43:10;;;;;;;8.32;1.65;;;7.70;99.90;;;;;;5047610;28;20127;-79
2023/04/20 04:45:38;;;;;;;6.05;1.73;;;7.60;99.90;;;;;;5042652;28;20047;-80
2023/04/20 04:48:04;;;;;;;5.18;1.73;;;7.50;99.90;;;;;;5045068;28;20044;-79
2023/04/20 04:50:30;;;;;;;5.55;1.70;;;7.30;99.90;;;;;;5043305;28;20537;-78
2023/04/20 04:52:55;;;;;;;2.83;1.33;;;7.30;99.90;;;;;;5042937;28;20087;-77
2023/04/20 04:55:21;;;;;;;5.82;1.70;;;7.20;99.90;;;;;;5058566;28;20037;-78
2023/04/20 04:57:47;;;;;;;4.07;1.45;;;7.10;99.90;;;;;;5057332;28;20040;-78
2023/04/20 05:00:14;;;;;;;8.05;1.38;;;7.20;99.90;;;;;;5044674;28;20053;-79
2023/04/20 05:02:40;;;;;;;5.78;1.23;;;7.20;99.90;;;;;;5042899;28;20491;-77
2023/04/20 05:05:07;;;;;;;2.95;1.55;;;7.10;99.90;;;;;;5041507;28;20071;-78
2023/04/20 05:07:32;;;;;;;4.45;1.25;;;7.20;99.90;;;;;;5042303;28;20060;-78
2023/04/20 05:09:58;;;;;;;5.25;1.58;;;7.20;99.90;;;;;;5037197;28;20476;-78
2023/04/20 05:12:24;;;;;;;2.67;0.70;;;7.20;99.90;;;;;;5045635;28;20084;-78
2023/04/20 05:14:51;;;;;;;4.13;1.77;;;7.20;99.90;;;;;;5040971;28;20641;-78
2023/04/20 05:17:16;;;;;;;6.25;1.55;;;7.20;99.90;;;;;;5040970;28;20055;-78
2023/04/20 05:19:42;;;;;;;3.83;1.20;;;7.20;99.90;;;;;;5040089;28;20038;-78
2023/04/20 05:22:07;;;;;;;4.72;1.67;;;7.20;99.90;;;;;;5053655;28;20116;-78
2023/04/20 05:24:33;;;;;;;5.22;1.60;;;7.20;99.90;;;;;;5039601;28;20045;-78
2023/04/20 05:26:58;;;;;;;3.60;1.30;;;7.20;99.90;;;;;;5040888;28;20036;-78
2023/04/20 05:29:24;;;;;;;4.85;1.50;;;7.10;99.90;;;;;;5056799;28;20080;-78
2023/04/20 05:31:50;;;;;;;4.57;1.50;;;7.20;99.90;;;;;;5040300;28;20106;-78
2023/04/20 05:34:15;;;;;;;7.90;1.52;;;7.20;99.90;;;;;;5027986;28;20045;-77
2023/04/20 05:36:41;;;;;;;2.88;1.30;;;7.20;99.90;;;;;;5037651;28;20384;-78
2023/04/20 05:39:07;;;;;;;4.38;1.30;;;7.30;99.90;;;;;;5038317;28;20075;-78
2023/04/20 05:41:32;;;;;;;6.28;2.47;;;7.30;99.90;;;;;;5070480;28;20159;-79
2023/04/20 05:43:58;;;;;;;2.38;0.90;;;7.30;99.90;;;;;;5038580;28;20052;-77
2023/04/20 05:46:23;;;;;;;3.67;1.40;;;7.30;99.90;;;;;;5036507;28;20038;-77
2023/04/20 05:48:49;;;;;;;5.72;1.33;;;7.30;99.90;;;;;;5039595;28;20051;-77
2023/04/20 05:51:14;;;;;;;9.05;1.65;;;7.30;99.90;;;;;;5038863;28;20036;-77
2023/04/20 05:53:40;;;;;;;13.63;1.60;;;7.20;99.90;;;;;;5041140;28;20057;-77
2023/04/20 05:56:06;;;;;;;6.57;1.52;;;7.20;99.90;;;;;;5075281;28;20034;-77
2023/04/20 05:58:33;;;;;;;2.95;1.90;;;7.20;99.90;;;;;;5041625;28;20090;-78
2023/04/20 06:01:01;;;;;;;2.97;1.20;;;7.20;99.90;;;;;;5046251;28;20060;-77
2023/04/20 06:03:26;;;;;;;4.15;1.77;;;7.20;99.90;;;;;;5043702;28;20078;-77
2023/04/20 06:05:52;;;;;;;3.95;1.48;;;7.10;99.90;;;;;;5046659;28;20045;-78
2023/04/20 06:08:18;;;;;;;5.72;1.45;;;7.10;99.90;;;;;;5044485;28;20044;-78
2023/04/20 06:10:44;;;;;;;2.28;1.50;;;7.00;99.90;;;;;;5042446;28;20052;-77
2023/04/20 06:13:09;;;;;;;3.63;1.92;;;6.90;99.90;;;;;;5043810;28;20051;-77
2023/04/20 06:15:35;;;;;;;4.50;1.63;;;6.90;99.90;;;;;;5045695;28;20052;-77
2023/04/20 06:18:01;;;;;;;5.70;1.83;;;6.90;99.90;;;;;;5036193;28;20040;-78
2023/04/20 06:20:26;;;;;;;6.72;1.80;;;6.90;99.90;;;;;;5038395;28;20071;-78
2023/04/20 06:22:52;;;;;;;4.45;1.83;;;6.80;99.90;;;;;;5039719;28;20045;-78
2023/04/20 06:25:18;;;;;;;5.65;1.98;;;6.80;99.90;;;;;;5043497;28;20044;-78
2023/04/20 06:27:43;;;;;;;6.32;2.00;;;6.70;99.90;;;;;;5042505;28;21775;-77
2023/04/20 06:30:09;;;;;;;3.83;1.33;;;6.30;99.90;;;;;;5037307;28;20475;-78
2023/04/20 06:32:36;;;;;;;2.65;1.80;;;6.70;99.90;;;;;;5042250;28;20527;-77
2023/04/20 06:35:03;;;;;;;3.30;2.00;;;6.70;99.90;;;;;;5042547;28;20041;-78
2023/04/20 06:37:29;;;;;;;3.28;1.77;;;6.60;99.90;;;;;;5042468;28;20084;-78
2023/04/20 06:39:54;;;;;;;3.75;1.63;;;6.60;99.90;;;;;;5041379;28;20064;-77
2023/04/20 06:42:21;;;;;;;3.20;1.60;;;6.60;99.90;;;;;;5043905;28;20037;-78
2023/04/20 06:44:46;;;;;;;3.88;1.58;;;6.50;99.90;;;;;;5044510;28;20088;-78
2023/04/20 06:47:12;;;;;;;3.63;1.83;;;6.50;99.90;;;;;;5042819;28;20090;-78
2023/04/20 06:49:38;;;;;;;6.40;2.40;;;6.50;99.90;;;;;;5059635;28;20123;-78
2023/04/20 06:52:04;;;;;;;4.07;1.70;;;7.30;99.90;;;;;;5061066;28;20075;-78
2023/04/20 06:54:31;;;;;;;3.97;2.35;;;6.30;99.90;;;;;;5041940;28;20052;-78
2023/04/20 06:56:56;;;;;;;5.15;2.00;;;6.10;99.90;;;;;;5042612;28;20049;-78
2023/04/20 06:59:22;;;;;;;4.13;2.10;;;6.00;99.90;;;;;;5043156;28;20056;-78
2023/04/20 07:01:48;;;;;;;8.00;2.95;;;5.90;99.90;;;;;;5043389;28;20041;-78
2023/04/20 07:04:13;;;;;;;7.20;2.38;;;5.90;99.90;;;;;;5039601;28;20111;-78
2023/04/20 07:06:39;;;;;;;6.22;2.17;;;5.70;99.90;;;;;;5024318;28;20442;-78
2023/04/20 07:09:04;;;;;;;5.85;2.63;;;5.70;99.90;;;;;;5053431;28;20060;-78
2023/04/20 07:11:30;;;;;;;3.53;2.35;;;5.70;99.90;;;;;;5027647;28;20119;-78
2023/04/20 07:13:56;;;;;;;3.33;1.75;;;5.60;99.90;;;;;;5042469;28;20063;-78
2023/04/20 07:16:21;;;;;;;5.25;2.65;;;5.60;99.90;;;;;;5041504;28;20041;-78
2023/04/20 07:18:47;;;;;;;5.80;2.65;;;5.60;99.90;;;;;;5044159;28;20048;-78
2023/04/20 07:21:14;;;;;;;7.85;2.80;;;5.60;99.90;;;;;;5041509;28;20151;-78
2023/04/20 07:23:40;;;;;;;8.15;2.97;;;5.50;99.90;;;;;;5041354;28;20159;-78
2023/04/20 07:26:06;;;;;;;8.40;2.97;;;5.50;99.90;;;;;;5057747;28;20140;-78
2023/04/20 07:28:32;;;;;;;4.65;2.90;;;5.60;99.90;;;;;;5043043;28;20040;-78
2023/04/20 07:30:58;;;;;;;3.55;2.78;;;5.60;99.90;;;;;;5041067;28;20133;-78
2023/04/20 07:33:24;;;;;;;6.03;3.03;;;5.60;99.90;;;;;;5042046;28;20045;-78
2023/04/20 07:35:50;;;;;;;7.70;2.50;;;5.70;99.90;;;;;;5042603;28;20049;-78
2023/04/20 07:38:16;;;;;;;5.22;2.78;;;5.70;99.90;;;;;;5041265;28;20075;-78
2023/04/20 07:40:41;;;;;;;4.93;3.05;;;5.80;99.90;;;;;;5044882;28;20613;-78
2023/04/20 07:43:07;;;;;;;4.00;2.60;;;5.90;99.90;;;;;;5040124;28;20037;-78
2023/04/20 07:45:33;;;;;;;5.05;3.03;;;5.90;99.90;;;;;;5039267;28;20518;-78
2023/04/20 07:48:00;;;;;;;7.68;3.08;;;5.90;99.90;;;;;;5041159;28;20045;-78
2023/04/20 07:50:26;;;;;;;4.55;2.95;;;6.00;99.90;;;;;;5028247;28;20064;-77
2023/04/20 07:52:51;;;;;;;5.00;2.67;;;6.00;99.90;;;;;;5040992;28;20072;-78
2023/04/20 07:55:17;;;;;;;6.15;2.47;;;6.10;99.90;;;;;;5042921;28;20052;-78
2023/04/20 07:57:43;;;;;;;4.43;2.90;;;6.10;99.90;;;;;;5039335;28;20041;-78
2023/04/20 08:00:11;;;;;;;5.65;2.58;;;6.20;99.90;;;;;;5042439;28;20072;-78
2023/04/20 08:02:37;;;;;;;5.93;3.30;;;6.20;99.90;;;;;;5073627;28;20052;-77
2023/04/20 08:05:02;;;;;;;6.82;2.72;;;6.20;99.90;;;;;;5039958;28;20487;-77
2023/04/20 08:07:28;;;;;;;4.68;2.53;;;6.30;99.90;;;;;;5040874;28;20036;-77
2023/04/20 08:09:53;;;;;;;6.97;2.60;;;6.30;99.90;;;;;;5037536;28;20121;-77
2023/04/20 08:12:19;;;;;;;3.47;2.50;;;6.40;99.90;;;;;;5040660;28;20048;-77
2023/04/20 08:14:45;;;;;;;6.47;3.72;;;6.30;99.90;;;;;;5040993;28;20033;-78
2023/04/20 08:17:10;;;;;;;5.32;2.83;;;6.50;99.90;;;;;;5039717;28;20044;-77
2023/04/20 08:19:36;;;;;;;4.03;2.80;;;6.60;99.90;;;;;;5043004;28;20041;-77
2023/04/20 08:22:03;;;;;;;6.82;2.85;;;6.60;99.90;;;;;;5040940;28;20037;-77
2023/04/20 08:24:29;;;;;;;3.97;2.58;;;6.70;99.90;;;;;;5028915;28;20542;-77
2023/04/20 08:26:55;;;;;;;7.38;2.58;;;6.80;99.90;;;;;;5037861;28;20041;-78
2023/04/20 08:29:20;;;;;;;4.57;2.50;;;6.90;99.90;;;;;;5023262;28;20088;-77
2023/04/20 08:31:46;;;;;;;5.93;2.50;;;6.90;99.90;;;;;;5042211;28;20052;-77
2023/04/20 08:34:12;;;;;;;9.23;2.83;;;6.90;99.90;;;;;;5044927;28;20041;-78
2023/04/20 08:36:38;;;;;;;6.22;3.35;;;7.10;99.90;;;;;;5040326;28;20659;-77
2023/04/20 08:39:10;;;;;;;6.85;3.40;;;7.10;99.90;;;;;;5041581;28;20040;-77
2023/04/20 08:41:36;;;;;;;5.75;3.70;;;7.10;99.90;;;;;;5038740;28;20041;-77
2023/04/20 08:44:02;;;;;;;3.63;2.83;;;7.10;99.90;;;;;;5040029;28;20048;-77
2023/04/20 08:46:28;;;;;;;5.97;3.13;;;7.10;99.90;;;;;;5041017;28;20076;-77
2023/04/20 08:48:55;;;;;;;5.97;3.03;;;7.10;99.90;;;;;;5044999;28;20040;-78
2023/04/20 08:51:21;;;;;;;6.57;3.33;;;7.00;99.90;;;;;;5042663;28;20053;-78
2023/04/20 08:53:47;;;;;;;8.82;3.85;;;7.00;99.90;;;;;;5039960;28;20038;-78
2023/04/20 08:56:12;;;;;;;4.70;3.20;;;7.00;99.90;;;;;;5040386;28;20045;-77
2023/04/20 08:58:41;;;;;;;7.60;3.88;;;7.10;99.90;;;;;;5040792;28;20037;-77
2023/04/20 09:01:09;;;;;;;7.03;3.60;;;7.10;99.90;;;;;;5042238;28;20559;-78
2023/04/20 09:03:40;;;;;;;7.82;3.95;;;7.20;99.90;;;;;;5041670;28;20052;-78
2023/04/20 09:06:16;;;;;;;6.80;3.95;;;7.20;99.90;;;;;;5058318;28;20055;-78
2023/04/20 09:08:42;;;;;;;7.13;3.20;;;7.20;99.90;;;;;;5041020;28;20092;-78
2023/04/20 09:11:29;;;;;;;4.53;3.25;;;7.30;99.90;;;;;;5039541;28;20442;-78
2023/04/20 09:14:05;;;;;;;4.63;2.90;;;7.30;99.90;;;;;;5039438;28;20879;-77
2023/04/20 09:16:33;;;;;;;5.60;3.05;;;7.30;99.90;;;;;;5041291;28;20256;-78
2023/04/20 09:18:59;;;;;;;7.05;3.40;;;7.30;99.90;;;;;;5043539;28;20071;-78
2023/04/20 09:21:26;;;;;;;8.52;4.25;;;7.40;99.90;;;;;;5063113;28;20114;-78
2023/04/20 09:24:05;;;;;;;4.97;3.83;;;7.30;99.90;;;;;;5077085;28;20067;-78
2023/04/20 09:26:32;;;;;;;5.15;3.47;;;7.30;99.90;;;;;;5042623;28;20048;-78
2023/04/20 09:28:58;;;;;;;9.88;4.43;;;7.30;99.90;;;;;;5037750;28;20047;-78
2023/04/20 09:31:24;;;;;;;7.03;3.70;;;7.30;99.90;;;;;;5036453;28;20450;-77
2023/04/20 09:33:57;;;;;;;5.00;3.47;;;7.30;99.90;;;;;;5040602;28;20132;-77
2023/04/20 09:36:24;;;;;;;6.95;4.20;;;7.30;99.90;;;;;;5039081;28;20041;-78
2023/04/20 09:39:05;;;;;;;5.18;3.33;;;7.40;99.90;;;;;;5038966;28;20049;-77
2023/04/20 09:41:31;;;;;;;8.23;4.25;;;7.40;99.90;;;;;;5040775;28;20037;-77
2023/04/20 09:43:58;;;;;;;4.65;3.78;;;7.40;99.90;;;;;;5040956;28;20068;-77
2023/04/20 09:46:27;;;;;;;8.57;3.80;;;7.50;99.90;;;;;;5039339;28;20176;-78
2023/04/20 09:48:57;;;;;;;6.22;3.78;;;7.50;99.90;;;;;;5039429;28;20044;-78
2023/04/20 09:51:27;;;;;;;6.03;3.65;;;7.50;99.90;;;;;;5038764;28;20368;-77
2023/04/20 09:53:55;;;;;;;5.55;3.72;;;7.50;99.90;;;;;;5041516;28;20041;-78
2023/04/20 09:56:21;;;;;;;7.30;3.85;;;7.50;99.90;;;;;;5044805;28;20049;-79
2023/04/20 09:58:48;;;;;;;6.03;4.28;;;7.50;99.90;;;;;;5037009;28;20033;-78
2023/04/20 10:01:14;;;;;;;8.68;3.83;;;7.50;99.90;;;;;;5041501;28;20041;-77
2023/04/20 10:03:43;;;;;;;5.47;3.83;;;7.50;99.90;;;;;;5073560;28;20043;-77
2023/04/20 10:06:29;;;;;;;5.22;4.30;;;7.50;99.90;;;;;;5041757;28;20053;-78
2023/04/20 10:08:55;;;;;;;9.52;4.28;;;7.60;99.90;;;;;;5044009;28;20378;-78
2023/04/20 10:11:33;;;;;;;4.47;3.45;;;7.60;99.90;;;;;;5074126;28;20033;-78
2023/04/20 10:14:00;;;;;;;5.32;3.78;;;7.70;99.90;;;;;;5075195;28;20041;-77
2023/04/20 10:16:26;;;;;;;7.18;4.50;;;7.70;99.90;;;;;;5040400;28;20069;-78
2023/04/20 10:19:03;;;;;;;6.72;4.20;;;7.80;99.90;;;;;;5040489;28;20084;-78
2023/04/20 10:21:32;;;;;;;6.25;4.43;;;7.70;99.90;;;;;;5039116;28;20041;-78
2023/04/20 10:24:02;;;;;;;5.93;4.00;;;7.70;99.90;;;;;;5056169;28;20136;-78
2023/04/20 10:26:39;;;;;;;7.80;4.15;;;7.70;99.90;;;;;;5038951;28;20128;-78
2023/04/20 10:29:08;;;;;;;8.60;4.15;;;7.70;99.90;;;;;;5040651;28;20041;-79
2023/04/20 10:31:40;;;;;;;7.88;3.95;;;7.80;99.90;;;;;;5040988;28;20123;-78
2023/04/20 10:34:07;;;;;;;7.22;4.55;;;7.80;99.90;;;;;;5042880;28;20501;-78
2023/04/20 10:36:35;;;;;;;7.90;4.65;;;7.80;99.90;;;;;;5035664;28;20158;-77
2023/04/20 10:39:21;;;;;;;7.00;4.68;;;7.80;99.90;;;;;;5040188;28;20119;-77
2023/04/20 10:41:57;;;;;;;9.48;4.95;;;7.90;99.90;;;;;;5078436;28;20068;-77
2023/04/20 10:44:23;;;;;;;6.40;4.20;;;7.90;99.90;;;;;;5044041;28;20063;-77
2023/04/20 10:46:50;;;;;;;6.93;4.22;;;8.00;99.90;;;;;;5041935;28;20159;-77
2023/04/20 10:49:16;;;;;;;6.35;4.45;;;8.30;99.90;;;;;;5044560;28;20475;-77
2023/04/20 10:51:49;;;;;;;6.78;3.97;;;8.70;99.90;;;;;;5041861;28;20096;-77
2023/04/20 10:54:15;;;;;;;6.95;5.30;;;9.00;99.90;;;;;;5043992;28;20029;-77
2023/04/20 10:56:49;;;;;;;4.80;4.10;;;9.10;99.90;;;;;;5039605;28;20036;-77
2023/04/20 10:59:18;;;;;;;7.63;4.28;;;9.00;99.90;;;;;;5042156;28;20055;-77
2023/04/20 11:01:45;;;;;;;8.15;4.85;;;8.90;99.90;;;;;;5043939;28;20094;-77
2023/04/20 11:04:11;;;;;;;6.47;4.85;;;8.90;99.90;;;;;;5059579;28;20167;-77
2023/04/20 11:06:39;;;;;;;6.80;5.35;;;8.70;99.90;;;;;;5044043;28;20030;-77
2023/04/20 11:09:17;;;;;;;9.13;5.82;;;8.80;99.90;;;;;;5042612;28;20051;-77
2023/04/20 11:11:43;;;;;;;5.88;5.18;;;9.00;99.90;;;;;;5040458;28;20170;-77
2023/04/20 11:14:10;;;;;;;7.03;6.03;;;9.00;99.90;;;;;;5045057;28;20551;-77
2023/04/20 11:16:36;;;;;;;5.78;5.05;;;9.20;99.90;;;;;;5040222;28;20082;-78
2023/04/20 11:19:03;;;;;;;8.68;6.28;;;9.10;99.90;;;;;;5043741;28;20606;-77
2023/04/20 11:21:47;;;;;;;7.35;6.35;;;9.20;99.90;;;;;;5042875;28;20097;-77
2023/04/20 11:24:40;;;;;;;6.38;5.72;;;9.10;99.90;;;;;;5045395;28;20048;-80
2023/04/20 11:27:05;;;;;;;9.45;5.65;;;9.20;99.90;;;;;;5043218;28;20582;-77
2023/04/20 11:29:34;;;;;;;7.40;6.32;;;9.60;99.90;;;;;;5043432;28;20120;-78
2023/04/20 11:32:03;;;;;;;7.22;6.50;;;9.70;99.90;;;;;;5042728;28;20105;-77
2023/04/20 11:34:28;;;;;;;10.45;6.45;;;9.80;99.90;;;;;;5043487;28;20053;-77
2023/04/20 11:36:58;;;;;;;7.22;6.35;;;9.90;99.90;;;;;;5045265;28;20053;-77
2023/04/20 11:39:28;;;;;;;9.10;6.93;;;10.10;99.90;;;;;;5041324;28;20098;-77
2023/04/20 11:41:55;;;;;;;7.55;6.78;;;10.60;99.90;;;;;;5026619;28;20106;-77
2023/04/20 11:44:21;;;;;;;8.30;6.68;;;10.80;99.90;;;;;;5039569;28;20441;-77
2023/04/20 11:46:52;;;;;;;7.00;6.28;;;11.00;99.90;;;;;;5044892;28;20038;-77
2023/04/20 11:49:18;;;;;;;9.55;7.03;;;10.80;99.90;;;;;;5045257;28;20049;-78
2023/04/20 11:51:45;;;;;;;7.70;5.65;;;10.40;99.90;;;;;;5038996;28;20075;-77
2023/04/20 11:54:11;;;;;;;8.27;5.78;;;10.00;99.90;;;;;;5042018;28;20049;-77
2023/04/20 11:56:37;;;;;;;7.85;6.93;;;9.80;99.90;;;;;;5042188;28;20045;-78
2023/04/20 11:59:03;;;;;;;7.07;6.35;;;9.80;99.90;;;;;;5042543;28;20080;-77
2023/04/20 12:01:29;;;;;;;8.45;6.50;;;9.80;99.90;;;;;;5042126;28;20040;-77
2023/04/20 12:03:54;;;;;;;9.68;6.03;;;10.20;99.90;;;;;;5040600;28;20059;-77
2023/04/20 12:06:20;;;;;;;7.03;5.90;;;10.30;99.90;;;;;;5039398;28;20488;-77
2023/04/20 12:08:47;;;;;;;7.35;5.78;;;10.40;99.90;;;;;;5044291;28;20036;-77
2023/04/20 12:11:15;;;;;;;6.75;5.63;;;10.20;99.90;;;;;;5044591;28;20112;-77
2023/04/20 12:13:41;;;;;;;6.15;4.88;;;10.20;99.90;;;;;;5043224;28;20499;-77
2023/04/20 12:16:07;;;;;;;7.30;5.50;;;10.30;99.90;;;;;;5038924;28;20087;-77
2023/04/20 12:18:33;;;;;;;8.30;5.70;;;10.50;99.90;;;;;;5040831;28;20053;-77
2023/04/20 12:20:59;;;;;;;7.90;6.07;;;10.50;99.90;;;;;;5042029;28;20041;-77
2023/04/20 12:23:25;;;;;;;8.02;6.05;;;10.60;99.90;;;;;;5043011;28;20162;-77
2023/04/20 12:25:51;;;;;;;6.00;5.40;;;10.60;99.90;;;;;;5041820;28;20073;-77
2023/04/20 12:28:16;;;;;;;7.20;6.00;;;10.70;99.90;;;;;;5042364;28;20621;-77
2023/04/20 12:30:42;;;;;;;7.05;6.32;;;10.60;99.90;;;;;;5043951;28;20044;-78
2023/04/20 12:33:08;;;;;;;7.90;6.22;;;10.30;99.90;;;;;;5039650;28;20060;-78
2023/04/20 12:35:33;;;;;;;10.23;6.85;;;10.20;99.90;;;;;;5041032;28;20056;-77
2023/04/20 12:37:59;;;;;;;9.80;6.63;;;10.40;99.90;;;;;;5040814;28;20177;-78
2023/04/20 12:40:25;;;;;;;7.63;6.72;;;10.50;99.90;;;;;;5043705;28;20622;-77
2023/04/20 12:42:50;;;;;;;6.72;6.10;;;10.40;99.90;;;;;;5042343;28;20124;-78
2023/04/20 12:45:16;;;;;;;11.05;6.03;;;10.30;99.90;;;;;;5044980;28;20403;-77
2023/04/20 12:47:41;;;;;;;9.88;5.50;;;10.30;99.90;;;;;;5043707;28;20400;-78
2023/04/20 12:50:07;;;;;;;7.47;5.85;;;10.10;99.90;;;;;;5042005;28;20399;-77
2023/04/20 12:52:33;;;;;;;7.97;6.57;;;10.00;99.90;;;;;;5037795;28;20049;-78